sensor_id;sensor_type;location;lat;lon;timestamp;P1;durP1;ratioP1;P2;durP2;ratioP2
24259;SDS011;12384;48.112;18.418;2023-05-14T00:01:47;14.17;;;13.07;;
24259;SDS011;12384;48.112;18.418;2023-05-14T00:04:17;13.33;;;12.33;;
24259;SDS011;12384;48.112;18.418;2023-05-14T00:06:47;13.23;;;12.13;;
24259;SDS011;12384;48.112;18.418;2023-05-14T00:09:15;13.13;;;12.23;;
24259;SDS011;12384;48.112;18.418;2023-05-14T00:11:44;13.10;;;12.20;;
24259;SDS011;12384;48.112;18.418;2023-05-14T00:14:12;12.83;;;11.87;;
24259;SDS011;12384;48.112;18.418;2023-05-14T00:16:41;12.17;;;11.47;;
24259;SDS011;12384;48.112;18.418;2023-05-14T00:19:09;12.80;;;11.90;;
24259;SDS011;12384;48.112;18.418;2023-05-14T00:21:38;12.20;;;11.20;;
24259;SDS011;12384;48.112;18.418;2023-05-14T00:24:08;12.80;;;11.90;;
24259;SDS011;12384;48.112;18.418;2023-05-14T00:26:36;11.90;;;11.00;;
24259;SDS011;12384;48.112;18.418;2023-05-14T00:29:05;12.37;;;11.57;;
24259;SDS011;12384;48.112;18.418;2023-05-14T00:31:33;13.33;;;12.27;;
24259;SDS011;12384;48.112;18.418;2023-05-14T00:34:02;12.40;;;11.60;;
24259;SDS011;12384;48.112;18.418;2023-05-14T00:36:30;12.23;;;11.43;;
24259;SDS011;12384;48.112;18.418;2023-05-14T00:38:59;12.27;;;11.47;;
24259;SDS011;12384;48.112;18.418;2023-05-14T00:41:29;12.63;;;11.73;;
24259;SDS011;12384;48.112;18.418;2023-05-14T00:43:57;12.33;;;11.53;;
24259;SDS011;12384;48.112;18.418;2023-05-14T00:46:26;12.17;;;11.33;;
24259;SDS011;12384;48.112;18.418;2023-05-14T00:48:55;12.60;;;11.67;;
24259;SDS011;12384;48.112;18.418;2023-05-14T00:51:24;12.43;;;11.63;;
24259;SDS011;12384;48.112;18.418;2023-05-14T00:53:53;12.67;;;11.77;;
24259;SDS011;12384;48.112;18.418;2023-05-14T00:56:21;12.57;;;11.60;;
24259;SDS011;12384;48.112;18.418;2023-05-14T00:58:52;12.60;;;11.80;;
24259;SDS011;12384;48.112;18.418;2023-05-14T01:01:21;12.60;;;11.70;;
24259;SDS011;12384;48.112;18.418;2023-05-14T01:03:49;11.97;;;11.27;;
24259;SDS011;12384;48.112;18.418;2023-05-14T01:06:21;12.97;;;11.90;;
24259;SDS011;12384;48.112;18.418;2023-05-14T01:08:57;12.43;;;11.63;;
24259;SDS011;12384;48.112;18.418;2023-05-14T01:11:31;12.40;;;11.60;;
24259;SDS011;12384;48.112;18.418;2023-05-14T01:14:10;13.13;;;12.13;;
24259;SDS011;12384;48.112;18.418;2023-05-14T01:16:48;12.63;;;11.83;;
24259;SDS011;12384;48.112;18.418;2023-05-14T01:19:20;12.27;;;11.47;;
24259;SDS011;12384;48.112;18.418;2023-05-14T01:21:57;12.80;;;11.80;;
24259;SDS011;12384;48.112;18.418;2023-05-14T01:24:26;11.50;;;10.70;;
24259;SDS011;12384;48.112;18.418;2023-05-14T01:26:55;12.67;;;11.80;;
24259;SDS011;12384;48.112;18.418;2023-05-14T01:29:28;13.93;;;12.93;;
24259;SDS011;12384;48.112;18.418;2023-05-14T01:32:00;13.17;;;12.27;;
24259;SDS011;12384;48.112;18.418;2023-05-14T01:34:34;12.30;;;11.50;;
24259;SDS011;12384;48.112;18.418;2023-05-14T01:37:05;12.83;;;12.03;;
24259;SDS011;12384;48.112;18.418;2023-05-14T01:39:36;13.00;;;12.00;;
24259;SDS011;12384;48.112;18.418;2023-05-14T01:42:06;12.70;;;11.80;;
24259;SDS011;12384;48.112;18.418;2023-05-14T01:44:35;12.47;;;11.57;;
24259;SDS011;12384;48.112;18.418;2023-05-14T01:47:04;13.07;;;12.03;;
24259;SDS011;12384;48.112;18.418;2023-05-14T01:49:33;12.60;;;11.70;;
24259;SDS011;12384;48.112;18.418;2023-05-14T01:52:03;11.57;;;10.87;;
24259;SDS011;12384;48.112;18.418;2023-05-14T01:54:33;11.93;;;11.03;;
24259;SDS011;12384;48.112;18.418;2023-05-14T01:57:01;11.90;;;11.03;;
24259;SDS011;12384;48.112;18.418;2023-05-14T01:59:30;12.03;;;11.17;;
24259;SDS011;12384;48.112;18.418;2023-05-14T02:01:58;11.57;;;10.70;;
24259;SDS011;12384;48.112;18.418;2023-05-14T02:04:27;11.70;;;10.80;;
24259;SDS011;12384;48.112;18.418;2023-05-14T02:06:55;12.10;;;11.30;;
24259;SDS011;12384;48.112;18.418;2023-05-14T02:09:24;12.97;;;11.30;;
24259;SDS011;12384;48.112;18.418;2023-05-14T02:11:53;11.73;;;10.93;;
24259;SDS011;12384;48.112;18.418;2023-05-14T02:14:22;12.73;;;11.67;;
24259;SDS011;12384;48.112;18.418;2023-05-14T02:16:50;11.90;;;11.10;;
24259;SDS011;12384;48.112;18.418;2023-05-14T02:19:18;11.70;;;10.90;;
24259;SDS011;12384;48.112;18.418;2023-05-14T02:21:48;11.13;;;10.43;;
24259;SDS011;12384;48.112;18.418;2023-05-14T02:24:17;11.20;;;10.47;;
24259;SDS011;12384;48.112;18.418;2023-05-14T02:26:45;11.77;;;10.87;;
24259;SDS011;12384;48.112;18.418;2023-05-14T02:29:15;11.53;;;10.73;;
24259;SDS011;12384;48.112;18.418;2023-05-14T02:31:43;11.63;;;10.73;;
24259;SDS011;12384;48.112;18.418;2023-05-14T02:34:12;11.20;;;10.30;;
24259;SDS011;12384;48.112;18.418;2023-05-14T02:36:41;11.80;;;10.83;;
24259;SDS011;12384;48.112;18.418;2023-05-14T02:39:09;11.40;;;10.63;;
24259;SDS011;12384;48.112;18.418;2023-05-14T02:41:38;11.73;;;10.80;;
24259;SDS011;12384;48.112;18.418;2023-05-14T02:44:06;11.90;;;10.87;;
24259;SDS011;12384;48.112;18.418;2023-05-14T02:46:36;11.50;;;10.70;;
24259;SDS011;12384;48.112;18.418;2023-05-14T02:49:04;12.20;;;11.17;;
24259;SDS011;12384;48.112;18.418;2023-05-14T02:51:33;11.20;;;10.30;;
24259;SDS011;12384;48.112;18.418;2023-05-14T02:54:02;11.50;;;10.60;;
24259;SDS011;12384;48.112;18.418;2023-05-14T02:56:30;11.63;;;10.63;;
24259;SDS011;12384;48.112;18.418;2023-05-14T02:59:00;11.40;;;10.60;;
24259;SDS011;12384;48.112;18.418;2023-05-14T03:01:29;11.40;;;10.43;;
24259;SDS011;12384;48.112;18.418;2023-05-14T03:03:59;12.00;;;11.20;;
24259;SDS011;12384;48.112;18.418;2023-05-14T03:06:27;12.83;;;11.93;;
24259;SDS011;12384;48.112;18.418;2023-05-14T03:08:56;12.83;;;12.00;;
24259;SDS011;12384;48.112;18.418;2023-05-14T03:11:25;13.20;;;11.83;;
24259;SDS011;12384;48.112;18.418;2023-05-14T03:13:53;12.70;;;11.87;;
24259;SDS011;12384;48.112;18.418;2023-05-14T03:16:21;12.63;;;11.73;;
24259;SDS011;12384;48.112;18.418;2023-05-14T03:18:50;11.93;;;11.13;;
24259;SDS011;12384;48.112;18.418;2023-05-14T03:21:20;12.07;;;11.17;;
24259;SDS011;12384;48.112;18.418;2023-05-14T03:23:48;12.13;;;11.13;;
24259;SDS011;12384;48.112;18.418;2023-05-14T03:26:17;12.20;;;11.30;;
24259;SDS011;12384;48.112;18.418;2023-05-14T03:28:50;12.77;;;11.73;;
24259;SDS011;12384;48.112;18.418;2023-05-14T03:31:19;12.00;;;11.20;;
24259;SDS011;12384;48.112;18.418;2023-05-14T03:33:47;11.70;;;10.60;;
24259;SDS011;12384;48.112;18.418;2023-05-14T03:36:16;12.13;;;11.13;;
24259;SDS011;12384;48.112;18.418;2023-05-14T03:38:47;11.90;;;11.10;;
24259;SDS011;12384;48.112;18.418;2023-05-14T03:41:16;12.10;;;11.00;;
24259;SDS011;12384;48.112;18.418;2023-05-14T03:43:45;11.97;;;11.17;;
24259;SDS011;12384;48.112;18.418;2023-05-14T03:46:14;11.70;;;10.80;;
24259;SDS011;12384;48.112;18.418;2023-05-14T03:48:42;12.00;;;11.20;;
24259;SDS011;12384;48.112;18.418;2023-05-14T03:51:11;11.53;;;10.63;;
24259;SDS011;12384;48.112;18.418;2023-05-14T03:53:39;11.33;;;10.50;;
24259;SDS011;12384;48.112;18.418;2023-05-14T03:56:09;11.40;;;10.60;;
24259;SDS011;12384;48.112;18.418;2023-05-14T03:58:38;11.90;;;10.90;;
24259;SDS011;12384;48.112;18.418;2023-05-14T04:01:06;11.20;;;10.50;;
24259;SDS011;12384;48.112;18.418;2023-05-14T04:03:34;10.60;;;9.90;;
24259;SDS011;12384;48.112;18.418;2023-05-14T04:06:03;11.20;;;10.40;;
24259;SDS011;12384;48.112;18.418;2023-05-14T04:08:33;12.03;;;10.93;;
24259;SDS011;12384;48.112;18.418;2023-05-14T04:11:01;11.27;;;10.37;;
24259;SDS011;12384;48.112;18.418;2023-05-14T04:13:31;11.80;;;10.90;;
24259;SDS011;12384;48.112;18.418;2023-05-14T04:15:59;11.20;;;10.40;;
24259;SDS011;12384;48.112;18.418;2023-05-14T04:18:28;11.57;;;10.60;;
24259;SDS011;12384;48.112;18.418;2023-05-14T04:21:00;11.73;;;10.83;;
24259;SDS011;12384;48.112;18.418;2023-05-14T04:23:29;10.73;;;10.03;;
24259;SDS011;12384;48.112;18.418;2023-05-14T04:25:58;10.57;;;9.77;;
24259;SDS011;12384;48.112;18.418;2023-05-14T04:28:26;11.57;;;10.67;;
24259;SDS011;12384;48.112;18.418;2023-05-14T04:30:56;11.60;;;10.60;;
24259;SDS011;12384;48.112;18.418;2023-05-14T04:33:24;10.30;;;9.60;;
24259;SDS011;12384;48.112;18.418;2023-05-14T04:35:53;11.20;;;10.37;;
24259;SDS011;12384;48.112;18.418;2023-05-14T04:38:22;11.40;;;10.57;;
24259;SDS011;12384;48.112;18.418;2023-05-14T04:40:50;11.60;;;10.60;;
24259;SDS011;12384;48.112;18.418;2023-05-14T04:43:19;12.07;;;11.20;;
24259;SDS011;12384;48.112;18.418;2023-05-14T04:45:47;11.00;;;10.20;;
24259;SDS011;12384;48.112;18.418;2023-05-14T04:48:18;11.63;;;10.73;;
24259;SDS011;12384;48.112;18.418;2023-05-14T04:50:47;10.80;;;10.00;;
24259;SDS011;12384;48.112;18.418;2023-05-14T04:53:15;11.13;;;10.33;;
24259;SDS011;12384;48.112;18.418;2023-05-14T04:55:44;11.63;;;10.77;;
24259;SDS011;12384;48.112;18.418;2023-05-14T04:58:12;10.83;;;9.87;;
24259;SDS011;12384;48.112;18.418;2023-05-14T05:00:40;10.47;;;9.77;;
24259;SDS011;12384;48.112;18.418;2023-05-14T05:03:09;10.83;;;9.93;;
24259;SDS011;12384;48.112;18.418;2023-05-14T05:05:39;10.57;;;9.77;;
24259;SDS011;12384;48.112;18.418;2023-05-14T05:08:08;10.83;;;10.13;;
24259;SDS011;12384;48.112;18.418;2023-05-14T05:10:37;10.80;;;10.00;;
24259;SDS011;12384;48.112;18.418;2023-05-14T05:13:05;10.90;;;10.13;;
24259;SDS011;12384;48.112;18.418;2023-05-14T05:15:33;10.57;;;9.80;;
24259;SDS011;12384;48.112;18.418;2023-05-14T05:18:02;11.17;;;10.37;;
24259;SDS011;12384;48.112;18.418;2023-05-14T05:20:30;10.47;;;9.73;;
24259;SDS011;12384;48.112;18.418;2023-05-14T05:23:00;11.37;;;10.23;;
24259;SDS011;12384;48.112;18.418;2023-05-14T05:25:29;11.07;;;10.30;;
24259;SDS011;12384;48.112;18.418;2023-05-14T05:27:57;10.00;;;9.30;;
24259;SDS011;12384;48.112;18.418;2023-05-14T05:30:26;11.07;;;10.27;;
24259;SDS011;12384;48.112;18.418;2023-05-14T05:32:55;11.10;;;10.30;;
24259;SDS011;12384;48.112;18.418;2023-05-14T05:35:24;10.60;;;9.87;;
24259;SDS011;12384;48.112;18.418;2023-05-14T05:37:52;11.33;;;10.47;;
24259;SDS011;12384;48.112;18.418;2023-05-14T05:40:22;10.50;;;9.70;;
24259;SDS011;12384;48.112;18.418;2023-05-14T05:42:51;13.47;;;12.43;;
24259;SDS011;12384;48.112;18.418;2023-05-14T05:45:19;23.10;;;19.57;;
24259;SDS011;12384;48.112;18.418;2023-05-14T05:47:48;17.50;;;16.00;;
24259;SDS011;12384;48.112;18.418;2023-05-14T05:50:16;15.47;;;14.17;;
24259;SDS011;12384;48.112;18.418;2023-05-14T05:52:45;13.47;;;12.37;;
24259;SDS011;12384;48.112;18.418;2023-05-14T05:55:14;16.40;;;14.80;;
24259;SDS011;12384;48.112;18.418;2023-05-14T05:57:43;19.57;;;17.77;;
24259;SDS011;12384;48.112;18.418;2023-05-14T06:00:12;16.70;;;15.30;;
24259;SDS011;12384;48.112;18.418;2023-05-14T06:02:42;18.37;;;16.87;;
24259;SDS011;12384;48.112;18.418;2023-05-14T06:05:11;15.23;;;14.07;;
24259;SDS011;12384;48.112;18.418;2023-05-14T06:07:39;13.80;;;12.70;;
24259;SDS011;12384;48.112;18.418;2023-05-14T06:10:08;13.93;;;12.60;;
24259;SDS011;12384;48.112;18.418;2023-05-14T06:12:37;12.17;;;11.37;;
24259;SDS011;12384;48.112;18.418;2023-05-14T06:15:07;12.37;;;11.37;;
24259;SDS011;12384;48.112;18.418;2023-05-14T06:17:37;11.27;;;10.37;;
24259;SDS011;12384;48.112;18.418;2023-05-14T06:20:06;10.47;;;9.77;;
24259;SDS011;12384;48.112;18.418;2023-05-14T06:22:35;10.97;;;10.07;;
24259;SDS011;12384;48.112;18.418;2023-05-14T06:25:04;11.43;;;10.63;;
24259;SDS011;12384;48.112;18.418;2023-05-14T06:27:33;10.47;;;9.57;;
24259;SDS011;12384;48.112;18.418;2023-05-14T06:30:02;11.23;;;10.33;;
24259;SDS011;12384;48.112;18.418;2023-05-14T06:32:32;11.17;;;10.37;;
24259;SDS011;12384;48.112;18.418;2023-05-14T06:35:00;10.90;;;10.10;;
24259;SDS011;12384;48.112;18.418;2023-05-14T06:37:29;10.77;;;10.03;;
24259;SDS011;12384;48.112;18.418;2023-05-14T06:39:58;11.90;;;10.87;;
24259;SDS011;12384;48.112;18.418;2023-05-14T06:42:27;12.33;;;11.40;;
24259;SDS011;12384;48.112;18.418;2023-05-14T06:44:56;11.63;;;10.80;;
24259;SDS011;12384;48.112;18.418;2023-05-14T06:47:25;13.03;;;11.90;;
24259;SDS011;12384;48.112;18.418;2023-05-14T06:49:55;11.90;;;11.10;;
24259;SDS011;12384;48.112;18.418;2023-05-14T06:52:24;11.47;;;10.70;;
24259;SDS011;12384;48.112;18.418;2023-05-14T06:54:53;11.13;;;10.30;;
24259;SDS011;12384;48.112;18.418;2023-05-14T06:57:21;11.00;;;10.20;;
24259;SDS011;12384;48.112;18.418;2023-05-14T06:59:50;11.10;;;10.27;;
24259;SDS011;12384;48.112;18.418;2023-05-14T07:02:18;11.10;;;10.20;;
24259;SDS011;12384;48.112;18.418;2023-05-14T07:04:47;10.87;;;9.87;;
24259;SDS011;12384;48.112;18.418;2023-05-14T07:07:17;11.60;;;10.70;;
24259;SDS011;12384;48.112;18.418;2023-05-14T07:09:46;11.07;;;10.07;;
24259;SDS011;12384;48.112;18.418;2023-05-14T07:12:15;10.90;;;10.10;;
24259;SDS011;12384;48.112;18.418;2023-05-14T07:14:43;11.23;;;10.33;;
24259;SDS011;12384;48.112;18.418;2023-05-14T07:17:12;12.10;;;11.20;;
24259;SDS011;12384;48.112;18.418;2023-05-14T07:19:40;15.87;;;14.33;;
24259;SDS011;12384;48.112;18.418;2023-05-14T07:22:09;38.47;;;29.77;;
24259;SDS011;12384;48.112;18.418;2023-05-14T07:24:39;18.20;;;16.50;;
24259;SDS011;12384;48.112;18.418;2023-05-14T07:27:07;15.30;;;13.97;;
24259;SDS011;12384;48.112;18.418;2023-05-14T07:29:36;17.03;;;12.63;;
24259;SDS011;12384;48.112;18.418;2023-05-14T07:32:04;11.37;;;10.57;;
24259;SDS011;12384;48.112;18.418;2023-05-14T07:34:33;11.13;;;10.43;;
24259;SDS011;12384;48.112;18.418;2023-05-14T07:37:01;11.73;;;10.83;;
24259;SDS011;12384;48.112;18.418;2023-05-14T07:39:30;12.40;;;11.40;;
24259;SDS011;12384;48.112;18.418;2023-05-14T07:42:00;12.00;;;11.20;;
24259;SDS011;12384;48.112;18.418;2023-05-14T07:44:29;12.67;;;11.67;;
24259;SDS011;12384;48.112;18.418;2023-05-14T07:46:57;14.07;;;12.87;;
24259;SDS011;12384;48.112;18.418;2023-05-14T07:49:26;13.33;;;12.43;;
24259;SDS011;12384;48.112;18.418;2023-05-14T07:51:54;12.57;;;11.57;;
24259;SDS011;12384;48.112;18.418;2023-05-14T07:54:22;11.60;;;10.80;;
24259;SDS011;12384;48.112;18.418;2023-05-14T07:56:51;12.00;;;11.10;;
24259;SDS011;12384;48.112;18.418;2023-05-14T07:59:21;12.00;;;11.20;;
24259;SDS011;12384;48.112;18.418;2023-05-14T08:01:49;13.33;;;12.43;;
24259;SDS011;12384;48.112;18.418;2023-05-14T08:04:18;12.70;;;11.70;;
24259;SDS011;12384;48.112;18.418;2023-05-14T08:06:49;13.63;;;12.63;;
24259;SDS011;12384;48.112;18.418;2023-05-14T08:09:17;14.03;;;13.13;;
24259;SDS011;12384;48.112;18.418;2023-05-14T08:11:46;13.00;;;12.00;;
24259;SDS011;12384;48.112;18.418;2023-05-14T08:14:14;12.87;;;11.97;;
24259;SDS011;12384;48.112;18.418;2023-05-14T08:16:44;12.77;;;11.90;;
24259;SDS011;12384;48.112;18.418;2023-05-14T08:19:13;13.30;;;12.40;;
24259;SDS011;12384;48.112;18.418;2023-05-14T08:21:42;13.37;;;12.37;;
24259;SDS011;12384;48.112;18.418;2023-05-14T08:24:10;14.10;;;12.93;;
24259;SDS011;12384;48.112;18.418;2023-05-14T08:26:39;12.90;;;12.00;;
24259;SDS011;12384;48.112;18.418;2023-05-14T08:29:08;12.80;;;11.90;;
24259;SDS011;12384;48.112;18.418;2023-05-14T08:31:40;13.77;;;12.87;;
24259;SDS011;12384;48.112;18.418;2023-05-14T08:34:10;13.13;;;12.23;;
24259;SDS011;12384;48.112;18.418;2023-05-14T08:36:38;13.03;;;12.10;;
24259;SDS011;12384;48.112;18.418;2023-05-14T08:39:06;11.93;;;11.03;;
24259;SDS011;12384;48.112;18.418;2023-05-14T08:41:35;12.67;;;11.77;;
24259;SDS011;12384;48.112;18.418;2023-05-14T08:44:05;13.07;;;12.17;;
24259;SDS011;12384;48.112;18.418;2023-05-14T08:46:39;12.20;;;11.37;;
24259;SDS011;12384;48.112;18.418;2023-05-14T08:49:13;14.40;;;13.30;;
24259;SDS011;12384;48.112;18.418;2023-05-14T08:51:51;20.70;;;18.73;;
24259;SDS011;12384;48.112;18.418;2023-05-14T08:54:20;14.07;;;12.87;;
24259;SDS011;12384;48.112;18.418;2023-05-14T08:56:50;13.20;;;12.20;;
24259;SDS011;12384;48.112;18.418;2023-05-14T08:59:19;12.40;;;11.60;;
24259;SDS011;12384;48.112;18.418;2023-05-14T09:01:47;13.37;;;12.27;;
24259;SDS011;12384;48.112;18.418;2023-05-14T09:04:22;13.03;;;11.93;;
24259;SDS011;12384;48.112;18.418;2023-05-14T09:06:52;12.03;;;11.03;;
24259;SDS011;12384;48.112;18.418;2023-05-14T09:09:21;12.67;;;11.67;;
24259;SDS011;12384;48.112;18.418;2023-05-14T09:11:51;11.90;;;11.00;;
24259;SDS011;12384;48.112;18.418;2023-05-14T09:14:21;10.90;;;10.10;;
24259;SDS011;12384;48.112;18.418;2023-05-14T09:16:50;12.90;;;11.97;;
24259;SDS011;12384;48.112;18.418;2023-05-14T09:19:18;12.60;;;11.67;;
24259;SDS011;12384;48.112;18.418;2023-05-14T09:21:49;11.93;;;11.13;;
24259;SDS011;12384;48.112;18.418;2023-05-14T09:24:18;12.53;;;11.63;;
24259;SDS011;12384;48.112;18.418;2023-05-14T09:26:48;12.57;;;11.57;;
24259;SDS011;12384;48.112;18.418;2023-05-14T09:29:18;11.67;;;10.87;;
24259;SDS011;12384;48.112;18.418;2023-05-14T09:31:47;12.37;;;11.57;;
24259;SDS011;12384;48.112;18.418;2023-05-14T09:34:23;12.43;;;11.50;;
24259;SDS011;12384;48.112;18.418;2023-05-14T09:36:54;12.70;;;11.90;;
24259;SDS011;12384;48.112;18.418;2023-05-14T09:39:24;12.70;;;11.63;;
24259;SDS011;12384;48.112;18.418;2023-05-14T09:41:53;12.83;;;11.93;;
24259;SDS011;12384;48.112;18.418;2023-05-14T09:44:22;12.77;;;11.70;;
24259;SDS011;12384;48.112;18.418;2023-05-14T09:46:51;11.47;;;10.67;;
24259;SDS011;12384;48.112;18.418;2023-05-14T09:49:20;11.77;;;10.83;;
24259;SDS011;12384;48.112;18.418;2023-05-14T09:51:50;12.07;;;11.20;;
24259;SDS011;12384;48.112;18.418;2023-05-14T09:54:19;12.03;;;11.33;;
24259;SDS011;12384;48.112;18.418;2023-05-14T09:56:47;12.37;;;11.57;;
24259;SDS011;12384;48.112;18.418;2023-05-14T09:59:21;12.40;;;11.50;;
24259;SDS011;12384;48.112;18.418;2023-05-14T10:01:49;12.77;;;11.87;;
24259;SDS011;12384;48.112;18.418;2023-05-14T10:04:19;12.60;;;11.60;;
24259;SDS011;12384;48.112;18.418;2023-05-14T10:06:51;12.47;;;11.47;;
24259;SDS011;12384;48.112;18.418;2023-05-14T10:09:21;11.60;;;10.80;;
24259;SDS011;12384;48.112;18.418;2023-05-14T10:11:52;12.93;;;12.03;;
24259;SDS011;12384;48.112;18.418;2023-05-14T10:14:25;12.37;;;11.57;;
24259;SDS011;12384;48.112;18.418;2023-05-14T10:17:00;13.00;;;11.83;;
24259;SDS011;12384;48.112;18.418;2023-05-14T10:19:30;13.30;;;12.40;;
24259;SDS011;12384;48.112;18.418;2023-05-14T10:22:03;13.57;;;12.57;;
24259;SDS011;12384;48.112;18.418;2023-05-14T10:24:34;13.43;;;12.63;;
24259;SDS011;12384;48.112;18.418;2023-05-14T10:27:04;12.63;;;11.63;;
24259;SDS011;12384;48.112;18.418;2023-05-14T10:29:34;13.70;;;12.70;;
24259;SDS011;12384;48.112;18.418;2023-05-14T10:32:04;12.57;;;11.73;;
24259;SDS011;12384;48.112;18.418;2023-05-14T10:34:34;13.80;;;12.80;;
24259;SDS011;12384;48.112;18.418;2023-05-14T10:37:11;14.50;;;13.40;;
24259;SDS011;12384;48.112;18.418;2023-05-14T10:39:43;13.57;;;12.57;;
24259;SDS011;12384;48.112;18.418;2023-05-14T10:42:13;15.20;;;14.00;;
24259;SDS011;12384;48.112;18.418;2023-05-14T10:44:49;14.47;;;13.37;;
24259;SDS011;12384;48.112;18.418;2023-05-14T10:47:19;13.77;;;12.77;;
24259;SDS011;12384;48.112;18.418;2023-05-14T10:49:51;18.70;;;17.40;;
24259;SDS011;12384;48.112;18.418;2023-05-14T10:52:22;20.23;;;18.73;;
24259;SDS011;12384;48.112;18.418;2023-05-14T10:54:52;18.47;;;17.17;;
24259;SDS011;12384;48.112;18.418;2023-05-14T10:57:23;17.63;;;16.43;;
24259;SDS011;12384;48.112;18.418;2023-05-14T10:59:53;16.57;;;15.57;;
24259;SDS011;12384;48.112;18.418;2023-05-14T11:02:23;17.70;;;16.60;;
24259;SDS011;12384;48.112;18.418;2023-05-14T11:04:57;17.37;;;16.27;;
24259;SDS011;12384;48.112;18.418;2023-05-14T11:07:31;18.60;;;17.43;;
24259;SDS011;12384;48.112;18.418;2023-05-14T11:10:04;17.27;;;16.17;;
24259;SDS011;12384;48.112;18.418;2023-05-14T11:12:35;18.27;;;17.07;;
24259;SDS011;12384;48.112;18.418;2023-05-14T11:15:05;17.47;;;16.27;;
24259;SDS011;12384;48.112;18.418;2023-05-14T11:17:36;16.53;;;15.43;;
24259;SDS011;12384;48.112;18.418;2023-05-14T11:20:06;17.07;;;15.87;;
24259;SDS011;12384;48.112;18.418;2023-05-14T11:22:37;16.07;;;15.07;;
24259;SDS011;12384;48.112;18.418;2023-05-14T11:25:07;15.63;;;14.57;;
24259;SDS011;12384;48.112;18.418;2023-05-14T11:27:37;15.77;;;14.73;;
24259;SDS011;12384;48.112;18.418;2023-05-14T11:30:10;14.97;;;13.90;;
24259;SDS011;12384;48.112;18.418;2023-05-14T11:32:40;15.50;;;14.40;;
24259;SDS011;12384;48.112;18.418;2023-05-14T11:35:10;16.90;;;15.77;;
24259;SDS011;12384;48.112;18.418;2023-05-14T11:37:40;16.20;;;15.10;;
24259;SDS011;12384;48.112;18.418;2023-05-14T11:40:13;16.37;;;15.07;;
24259;SDS011;12384;48.112;18.418;2023-05-14T11:42:43;21.57;;;19.77;;
24259;SDS011;12384;48.112;18.418;2023-05-14T11:45:11;19.57;;;18.07;;
24259;SDS011;12384;48.112;18.418;2023-05-14T11:47:41;19.37;;;18.07;;
24259;SDS011;12384;48.112;18.418;2023-05-14T11:50:09;17.50;;;16.40;;
24259;SDS011;12384;48.112;18.418;2023-05-14T11:52:39;17.20;;;16.07;;
24259;SDS011;12384;48.112;18.418;2023-05-14T11:55:09;17.63;;;16.33;;
24259;SDS011;12384;48.112;18.418;2023-05-14T11:57:39;17.77;;;16.50;;
24259;SDS011;12384;48.112;18.418;2023-05-14T12:00:08;17.43;;;16.23;;
24259;SDS011;12384;48.112;18.418;2023-05-14T12:02:39;16.23;;;15.13;;
24259;SDS011;12384;48.112;18.418;2023-05-14T12:05:07;15.93;;;14.73;;
24259;SDS011;12384;48.112;18.418;2023-05-14T12:07:43;16.70;;;15.43;;
24259;SDS011;12384;48.112;18.418;2023-05-14T12:10:12;16.57;;;15.47;;
24259;SDS011;12384;48.112;18.418;2023-05-14T12:12:43;16.53;;;15.33;;
24259;SDS011;12384;48.112;18.418;2023-05-14T12:15:14;18.40;;;17.00;;
24259;SDS011;12384;48.112;18.418;2023-05-14T12:17:48;17.73;;;16.53;;
24259;SDS011;12384;48.112;18.418;2023-05-14T12:20:17;17.27;;;16.03;;
24259;SDS011;12384;48.112;18.418;2023-05-14T12:22:47;17.97;;;16.67;;
24259;SDS011;12384;48.112;18.418;2023-05-14T12:25:16;17.67;;;16.47;;
24259;SDS011;12384;48.112;18.418;2023-05-14T12:27:44;17.27;;;16.17;;
24259;SDS011;12384;48.112;18.418;2023-05-14T12:30:13;16.23;;;15.20;;
24259;SDS011;12384;48.112;18.418;2023-05-14T12:32:59;14.70;;;13.70;;
24259;SDS011;12384;48.112;18.418;2023-05-14T12:35:28;14.57;;;13.63;;
24259;SDS011;12384;48.112;18.418;2023-05-14T12:37:57;14.57;;;13.67;;
24259;SDS011;12384;48.112;18.418;2023-05-14T12:40:26;13.73;;;12.80;;
24259;SDS011;12384;48.112;18.418;2023-05-14T12:42:54;14.10;;;13.10;;
24259;SDS011;12384;48.112;18.418;2023-05-14T12:45:23;14.30;;;13.33;;
24259;SDS011;12384;48.112;18.418;2023-05-14T12:47:51;14.00;;;13.00;;
24259;SDS011;12384;48.112;18.418;2023-05-14T12:50:20;13.43;;;12.50;;
24259;SDS011;12384;48.112;18.418;2023-05-14T12:52:49;14.00;;;13.03;;
24259;SDS011;12384;48.112;18.418;2023-05-14T12:55:20;13.93;;;12.93;;
24259;SDS011;12384;48.112;18.418;2023-05-14T12:57:48;14.87;;;13.80;;
24259;SDS011;12384;48.112;18.418;2023-05-14T13:00:17;16.13;;;15.03;;
24259;SDS011;12384;48.112;18.418;2023-05-14T13:02:46;16.53;;;15.27;;
24259;SDS011;12384;48.112;18.418;2023-05-14T13:05:14;16.73;;;15.53;;
24259;SDS011;12384;48.112;18.418;2023-05-14T13:07:43;16.83;;;15.63;;
24259;SDS011;12384;48.112;18.418;2023-05-14T13:10:11;15.50;;;14.40;;
24259;SDS011;12384;48.112;18.418;2023-05-14T13:12:41;15.57;;;14.57;;
24259;SDS011;12384;48.112;18.418;2023-05-14T13:15:09;15.10;;;14.00;;
24259;SDS011;12384;48.112;18.418;2023-05-14T13:17:38;16.73;;;15.53;;
24259;SDS011;12384;48.112;18.418;2023-05-14T13:20:07;16.23;;;15.03;;
24259;SDS011;12384;48.112;18.418;2023-05-14T13:22:36;16.57;;;15.47;;
24259;SDS011;12384;48.112;18.418;2023-05-14T13:25:05;16.47;;;15.37;;
24259;SDS011;12384;48.112;18.418;2023-05-14T13:27:34;16.33;;;15.23;;
24259;SDS011;12384;48.112;18.418;2023-05-14T13:30:04;16.37;;;15.27;;
24259;SDS011;12384;48.112;18.418;2023-05-14T13:32:33;15.03;;;13.97;;
24259;SDS011;12384;48.112;18.418;2023-05-14T13:35:02;16.47;;;15.33;;
24259;SDS011;12384;48.112;18.418;2023-05-14T13:37:31;14.53;;;13.63;;
24259;SDS011;12384;48.112;18.418;2023-05-14T13:39:59;13.80;;;12.80;;
24259;SDS011;12384;48.112;18.418;2023-05-14T13:42:27;18.53;;;16.87;;
24259;SDS011;12384;48.112;18.418;2023-05-14T13:44:56;16.57;;;15.13;;
24259;SDS011;12384;48.112;18.418;2023-05-14T13:47:26;17.97;;;16.37;;
24259;SDS011;12384;48.112;18.418;2023-05-14T13:49:55;16.50;;;15.20;;
24259;SDS011;12384;48.112;18.418;2023-05-14T13:52:23;17.63;;;16.33;;
24259;SDS011;12384;48.112;18.418;2023-05-14T13:54:52;16.67;;;15.33;;
24259;SDS011;12384;48.112;18.418;2023-05-14T13:57:20;16.17;;;14.97;;
24259;SDS011;12384;48.112;18.418;2023-05-14T13:59:49;16.90;;;15.80;;
24259;SDS011;12384;48.112;18.418;2023-05-14T14:02:18;16.80;;;15.50;;
24259;SDS011;12384;48.112;18.418;2023-05-14T14:04:47;17.53;;;16.17;;
24259;SDS011;12384;48.112;18.418;2023-05-14T14:07:16;16.07;;;14.87;;
24259;SDS011;12384;48.112;18.418;2023-05-14T14:09:44;17.67;;;16.37;;
24259;SDS011;12384;48.112;18.418;2023-05-14T14:12:13;16.57;;;15.47;;
24259;SDS011;12384;48.112;18.418;2023-05-14T14:14:41;16.33;;;15.23;;
24259;SDS011;12384;48.112;18.418;2023-05-14T14:17:10;15.97;;;14.77;;
24259;SDS011;12384;48.112;18.418;2023-05-14T14:19:38;19.57;;;18.10;;
24259;SDS011;12384;48.112;18.418;2023-05-14T14:22:08;17.40;;;16.10;;